Time;durP1;ratioP1;P1;durP2;ratioP2;P2;SDS_P1;SDS_P2;PMS_P1;PMS_P2;Temp;Humidity;BMP_temperature;BMP_pressure;BME280_temperature;BME280_humidity;BME280_pressure;Samples;Min_cycle;Max_cycle;Signal;HPM_P1;HPM_P2
2023/04/05 00:00:42;;;;;;;8.83;6.93;;;5.50;99.90;;;;;;5017204;28;20891;-78
2023/04/05 00:03:08;;;;;;;8.30;6.80;;;5.80;99.90;;;;;;5019707;28;20455;-78
2023/04/05 00:05:35;;;;;;;8.37;6.40;;;5.60;99.90;;;;;;5020873;28;20421;-78
2023/04/05 00:08:03;;;;;;;8.30;6.23;;;5.70;99.90;;;;;;4995551;28;20422;-78
2023/04/05 00:10:30;;;;;;;8.40;6.50;;;5.60;99.90;;;;;;5020556;28;20465;-78
2023/04/05 00:12:59;;;;;;;7.40;6.70;;;5.50;99.90;;;;;;5008277;28;20427;-78
2023/04/05 00:15:28;;;;;;;7.47;6.17;;;5.60;99.90;;;;;;4993634;28;20426;-78
2023/04/05 00:17:54;;;;;;;9.67;6.60;;;5.70;99.90;;;;;;4994620;28;20837;-78
2023/04/05 00:20:20;;;;;;;9.43;6.50;;;5.60;99.90;;;;;;5011890;28;20493;-78
2023/04/05 00:22:49;;;;;;;7.57;6.00;;;5.50;99.90;;;;;;4994160;28;20461;-78
2023/04/05 00:25:15;;;;;;;9.83;6.90;;;5.60;99.90;;;;;;5011783;28;20683;-78
2023/04/05 00:27:44;;;;;;;7.20;6.47;;;5.50;99.90;;;;;;5010801;28;20865;-78
2023/04/05 00:30:11;;;;;;;9.27;6.90;;;5.40;99.90;;;;;;5019359;28;20544;-78
2023/04/05 00:32:36;;;;;;;8.97;6.67;;;5.40;99.90;;;;;;5024971;28;20790;-78
2023/04/05 00:35:02;;;;;;;7.17;6.20;;;5.60;99.90;;;;;;5024160;28;20426;-79
2023/04/05 00:37:27;;;;;;;10.97;6.67;;;5.60;99.90;;;;;;5012076;28;20215;-79
2023/04/05 00:39:56;;;;;;;7.67;6.37;;;5.40;99.90;;;;;;5010312;28;20219;-77
2023/04/05 00:42:22;;;;;;;10.47;6.47;;;5.40;99.90;;;;;;5011553;28;20318;-78
2023/04/05 00:44:47;;;;;;;9.17;6.63;;;5.40;99.90;;;;;;5011453;28;20517;-78
2023/04/05 00:47:13;;;;;;;9.17;7.10;;;5.10;99.90;;;;;;5010615;28;20472;-78
2023/04/05 00:49:40;;;;;;;9.10;6.67;;;5.30;99.90;;;;;;5009887;28;20226;-78
2023/04/05 00:52:05;;;;;;;10.70;7.30;;;5.00;99.90;;;;;;5011530;28;20425;-78
2023/04/05 00:54:32;;;;;;;8.73;7.13;;;5.00;99.90;;;;;;5011565;28;20418;-78
2023/04/05 00:56:58;;;;;;;9.60;7.00;;;5.10;99.90;;;;;;5011582;28;20214;-77
2023/04/05 00:59:25;;;;;;;9.77;7.03;;;4.90;99.90;;;;;;5011108;28;20434;-78
2023/04/05 01:02:32;;;;;;;9.07;7.03;;;4.90;99.90;;;;;;5012546;28;20429;-79
2023/04/05 01:05:04;;;;;;;9.10;7.20;;;5.00;99.90;;;;;;4990632;28;20517;-79
2023/04/05 01:07:41;;;;;;;11.07;7.50;;;5.00;99.90;;;;;;4991250;28;20431;-79
2023/04/05 01:10:11;;;;;;;8.10;6.80;;;4.90;99.90;;;;;;4998818;28;20465;-79
2023/04/05 01:12:38;;;;;;;9.27;7.43;;;5.00;99.90;;;;;;5016145;28;20421;-79
2023/04/05 01:15:04;;;;;;;8.93;7.20;;;4.80;99.90;;;;;;5015957;28;20919;-79
2023/04/05 01:17:35;;;;;;;8.50;7.30;;;4.80;99.90;;;;;;4997502;28;20429;-77
2023/04/05 01:20:09;;;;;;;9.57;7.30;;;4.80;99.90;;;;;;4995007;28;20449;-79
2023/04/05 01:22:37;;;;;;;8.80;7.37;;;4.60;99.90;;;;;;4995722;28;20489;-79
2023/04/05 01:25:21;;;;;;;8.30;6.60;;;4.70;99.90;;;;;;5010997;28;20423;-78
2023/04/05 01:28:08;;;;;;;9.57;7.57;;;4.60;99.90;;;;;;4995747;28;20423;-79
2023/04/05 01:30:42;;;;;;;8.50;7.10;;;4.40;99.90;;;;;;5010248;28;20466;-78
2023/04/05 01:33:11;;;;;;;9.67;7.00;;;4.40;99.90;;;;;;4994947;28;20947;-78
2023/04/05 01:35:52;;;;;;;10.43;7.37;;;4.60;99.90;;;;;;4994175;28;20411;-77
2023/04/05 01:38:24;;;;;;;10.80;7.77;;;4.40;99.90;;;;;;4994818;28;20919;-78
2023/04/05 01:40:50;;;;;;;12.60;7.20;;;4.30;99.90;;;;;;4994802;28;20466;-78
2023/04/05 01:43:17;;;;;;;9.23;7.20;;;4.30;99.90;;;;;;5010386;28;20423;-78
2023/04/05 01:45:44;;;;;;;13.23;7.00;;;4.40;99.90;;;;;;5013123;28;20942;-78
2023/04/05 01:48:10;;;;;;;9.43;7.43;;;4.20;99.90;;;;;;5013254;28;20446;-78
2023/04/05 01:50:36;;;;;;;11.23;6.70;;;4.40;99.90;;;;;;5013972;28;20520;-79
2023/04/05 01:53:02;;;;;;;8.80;6.90;;;4.20;99.90;;;;;;5015109;28;20402;-79
2023/04/05 01:55:28;;;;;;;8.23;6.60;;;4.20;99.90;;;;;;5015489;28;20411;-79
2023/04/05 01:57:55;;;;;;;8.40;6.80;;;4.10;99.90;;;;;;5013689;28;20417;-78
2023/04/05 02:00:21;;;;;;;9.73;7.27;;;4.20;99.90;;;;;;5013111;28;20775;-79
2023/04/05 02:02:47;;;;;;;9.20;7.00;;;4.10;99.90;;;;;;5013368;28;20818;-79
2023/04/05 02:05:13;;;;;;;10.83;8.13;;;4.00;99.90;;;;;;5013677;28;20501;-79
2023/04/05 02:07:39;;;;;;;11.40;7.50;;;4.20;99.90;;;;;;5014852;28;20175;-79
2023/04/05 02:10:05;;;;;;;12.03;8.33;;;4.30;99.90;;;;;;5014757;28;20206;-79
2023/04/05 02:12:31;;;;;;;11.20;7.60;;;4.00;99.90;;;;;;5014950;28;20202;-79
2023/04/05 02:14:57;;;;;;;11.10;8.33;;;4.20;99.90;;;;;;4995759;28;20470;-78
2023/04/05 02:17:23;;;;;;;11.23;8.03;;;4.00;99.90;;;;;;5012648;28;20171;-79
2023/04/05 02:19:51;;;;;;;12.20;8.27;;;3.70;99.90;;;;;;5011274;28;20465;-79
2023/04/05 02:22:18;;;;;;;13.63;8.40;;;3.70;99.90;;;;;;5013754;28;20430;-78
2023/04/05 02:24:44;;;;;;;12.40;7.87;;;3.90;99.90;;;;;;5013926;28;20414;-77
2023/04/05 02:27:10;;;;;;;12.90;8.73;;;4.00;99.90;;;;;;5014144;28;20463;-78
2023/04/05 02:29:36;;;;;;;11.57;7.70;;;3.90;99.90;;;;;;5014482;28;20465;-78
2023/04/05 02:32:01;;;;;;;9.77;8.10;;;3.90;99.90;;;;;;5030479;28;20437;-77
2023/04/05 02:34:27;;;;;;;9.97;7.80;;;3.90;99.90;;;;;;5013389;28;20418;-78
2023/04/05 02:36:53;;;;;;;9.37;8.30;;;3.80;99.90;;;;;;5028493;28;20411;-76
2023/04/05 02:39:19;;;;;;;10.60;7.97;;;3.90;99.90;;;;;;5014391;28;20481;-77
2023/04/05 02:41:45;;;;;;;12.17;7.77;;;3.70;99.90;;;;;;5014964;28;20418;-78
2023/04/05 02:44:12;;;;;;;9.53;7.83;;;3.90;99.90;;;;;;5008108;28;20668;-77
2023/04/05 02:46:37;;;;;;;10.47;7.97;;;3.70;99.90;;;;;;4995098;28;20510;-77
2023/04/05 02:49:03;;;;;;;9.90;6.83;;;3.90;99.90;;;;;;4994397;28;20474;-77
2023/04/05 02:51:29;;;;;;;8.73;7.70;;;3.70;99.90;;;;;;5010078;28;20234;-78
2023/04/05 02:53:55;;;;;;;12.60;8.53;;;3.70;99.90;;;;;;4994638;28;20180;-78
2023/04/05 02:56:20;;;;;;;9.70;7.23;;;3.70;99.90;;;;;;4994996;28;20422;-77
2023/04/05 02:58:48;;;;;;;11.97;8.13;;;3.50;99.90;;;;;;5009711;28;20199;-78
2023/04/05 03:01:16;;;;;;;11.00;8.73;;;3.60;99.90;;;;;;4994336;28;20924;-78
2023/04/05 03:03:42;;;;;;;9.53;7.73;;;3.80;99.90;;;;;;5009528;28;20518;-77
2023/04/05 03:06:12;;;;;;;13.10;9.63;;;3.50;99.90;;;;;;4994343;28;20419;-77
2023/04/05 03:08:42;;;;;;;14.97;9.47;;;3.60;99.90;;;;;;4992914;28;20431;-77
2023/04/05 03:11:10;;;;;;;12.47;9.20;;;3.50;99.90;;;;;;4992891;28;21033;-77
2023/04/05 03:13:36;;;;;;;11.70;8.97;;;3.50;99.90;;;;;;4994387;28;20442;-78
2023/04/05 03:16:02;;;;;;;10.73;8.80;;;3.40;99.90;;;;;;4994614;28;20900;-78
2023/04/05 03:18:28;;;;;;;13.90;10.27;;;3.50;99.90;;;;;;5000360;28;20418;-77
2023/04/05 03:20:55;;;;;;;14.10;9.97;;;3.50;99.90;;;;;;5013543;28;20424;-78
2023/04/05 03:23:26;;;;;;;11.30;8.20;;;3.60;99.90;;;;;;5014051;28;20437;-77
2023/04/05 03:26:02;;;;;;;12.87;10.37;;;3.60;99.90;;;;;;5014074;28;20443;-78
2023/04/05 03:28:31;;;;;;;12.80;8.97;;;3.60;99.90;;;;;;5028850;28;20421;-78
2023/04/05 03:30:57;;;;;;;17.03;11.17;;;3.40;99.90;;;;;;5013734;28;20524;-77
2023/04/05 03:33:22;;;;;;;18.27;12.10;;;3.40;99.90;;;;;;5013809;28;20468;-77
2023/04/05 03:35:48;;;;;;;17.00;11.87;;;3.60;99.90;;;;;;5012728;28;20410;-78
2023/04/05 03:38:15;;;;;;;17.97;12.10;;;3.60;99.90;;;;;;5011619;28;20213;-78
2023/04/05 03:40:40;;;;;;;19.17;12.27;;;3.30;99.90;;;;;;5013397;28;20564;-79
2023/04/05 03:43:06;;;;;;;17.37;11.67;;;3.20;99.90;;;;;;5013310;28;20414;-78
2023/04/05 03:45:32;;;;;;;14.97;11.30;;;3.40;99.90;;;;;;5011250;28;20184;-78
2023/04/05 03:47:58;;;;;;;16.40;10.70;;;3.40;99.90;;;;;;5008493;28;20191;-78
2023/04/05 03:50:27;;;;;;;12.87;9.57;;;3.50;99.90;;;;;;4993410;28;20455;-77
2023/04/05 03:52:53;;;;;;;14.93;10.87;;;3.30;99.90;;;;;;4993588;28;20403;-78
2023/04/05 03:55:19;;;;;;;15.70;10.07;;;3.30;99.90;;;;;;4993436;28;20411;-78
2023/04/05 03:57:45;;;;;;;12.20;9.63;;;3.20;99.90;;;;;;4993959;28;20815;-78
2023/04/05 04:00:16;;;;;;;12.80;9.30;;;3.10;99.90;;;;;;4993426;28;20214;-77
2023/04/05 04:02:48;;;;;;;11.13;9.00;;;3.30;99.90;;;;;;4992361;28;20443;-76
2023/04/05 04:05:15;;;;;;;12.40;9.80;;;3.30;99.90;;;;;;4993595;28;20430;-78
2023/04/05 04:07:42;;;;;;;12.33;9.63;;;3.10;99.90;;;;;;4993367;28;20795;-77
2023/04/05 04:10:10;;;;;;;16.23;10.43;;;3.10;99.90;;;;;;5008706;28;20475;-78
2023/04/05 04:12:36;;;;;;;14.83;10.37;;;3.30;99.90;;;;;;4994090;28;20442;-77
2023/04/05 04:15:03;;;;;;;14.10;9.90;;;3.00;99.90;;;;;;5008321;28;20415;-78
2023/04/05 04:17:30;;;;;;;17.97;12.27;;;3.10;99.90;;;;;;5008820;28;20454;-77
2023/04/05 04:19:56;;;;;;;19.03;11.20;;;3.10;99.90;;;;;;5012806;28;20785;-78
2023/04/05 04:22:25;;;;;;;17.90;11.73;;;3.20;99.90;;;;;;5028743;28;20958;-78
2023/04/05 04:24:52;;;;;;;19.13;11.93;;;3.00;99.90;;;;;;5028270;28;20504;-78
2023/04/05 04:27:19;;;;;;;15.17;11.40;;;3.30;99.90;;;;;;5027841;28;20982;-78
2023/04/05 04:29:46;;;;;;;19.03;11.93;;;3.30;99.90;;;;;;5027767;28;20493;-77
2023/04/05 04:32:14;;;;;;;17.40;12.13;;;3.30;99.90;;;;;;5013342;28;20425;-78
2023/04/05 04:34:43;;;;;;;15.70;11.47;;;3.10;99.90;;;;;;5026792;28;20489;-78
2023/04/05 04:37:21;;;;;;;20.17;12.73;;;3.00;99.90;;;;;;5028382;28;20416;-79
2023/04/05 04:39:47;;;;;;;20.23;12.37;;;2.80;99.90;;;;;;5028259;28;20474;-77
2023/04/05 04:42:18;;;;;;;20.17;12.40;;;3.00;99.90;;;;;;5029588;28;20754;-78
2023/04/05 04:44:47;;;;;;;20.60;13.17;;;3.20;99.90;;;;;;5017299;28;20433;-81
2023/04/05 04:47:16;;;;;;;23.33;14.53;;;3.10;99.90;;;;;;5023886;28;20418;-81
2023/04/05 04:49:42;;;;;;;18.90;12.70;;;2.90;99.90;;;;;;5025181;28;21076;-81
2023/04/05 04:52:08;;;;;;;19.87;12.20;;;3.00;99.90;;;;;;5016812;28;20519;-79
2023/04/05 04:54:35;;;;;;;23.40;14.00;;;2.90;99.90;;;;;;4998988;28;20422;-80
2023/04/05 04:57:01;;;;;;;23.63;13.40;;;3.00;99.90;;;;;;5015285;28;20491;-81
2023/04/05 04:59:32;;;;;;;26.07;15.17;;;3.10;99.90;;;;;;5019415;28;21035;-78
2023/04/05 05:01:57;;;;;;;23.57;15.07;;;3.10;99.90;;;;;;5024210;28;20441;-78
2023/04/05 05:04:23;;;;;;;21.37;13.67;;;2.90;99.90;;;;;;5017425;28;20821;-78
2023/04/05 05:06:53;;;;;;;23.77;15.30;;;2.90;99.90;;;;;;5026359;28;20189;-78
2023/04/05 05:09:18;;;;;;;21.50;13.87;;;2.90;99.90;;;;;;5027108;28;20210;-77
2023/04/05 05:11:44;;;;;;;23.83;15.70;;;3.10;99.90;;;;;;5035473;28;20954;-78
2023/04/05 05:14:10;;;;;;;25.33;16.00;;;3.00;99.90;;;;;;5028373;28;20180;-78
2023/04/05 05:16:35;;;;;;;30.53;16.77;;;2.80;99.90;;;;;;5010838;28;20179;-78
2023/04/05 05:19:01;;;;;;;30.23;16.60;;;2.80;99.90;;;;;;5005956;28;20231;-78
2023/04/05 05:21:27;;;;;;;24.93;15.07;;;2.90;99.90;;;;;;5030333;28;20405;-77
2023/04/05 05:23:52;;;;;;;24.37;15.00;;;3.00;99.90;;;;;;5030246;28;20172;-78
2023/04/05 05:26:18;;;;;;;24.47;15.90;;;2.90;99.90;;;;;;5029636;28;20186;-77
2023/04/05 05:28:44;;;;;;;25.43;15.93;;;3.00;99.90;;;;;;5021287;28;20178;-78
2023/04/05 05:31:11;;;;;;;30.80;17.80;;;3.00;99.90;;;;;;5017112;28;20203;-77
2023/04/05 05:33:36;;;;;;;23.90;15.60;;;3.00;99.90;;;;;;5014084;28;20437;-77
2023/04/05 05:36:02;;;;;;;23.00;14.83;;;3.20;99.90;;;;;;5011366;28;20821;-78
2023/04/05 05:38:28;;;;;;;28.50;16.50;;;3.00;99.90;;;;;;5013971;28;20266;-78
2023/04/05 05:40:56;;;;;;;26.07;16.00;;;3.10;99.90;;;;;;5013192;28;20524;-78
2023/04/05 05:43:21;;;;;;;26.10;15.87;;;3.20;99.90;;;;;;5014936;28;20685;-78
2023/04/05 05:45:47;;;;;;;23.80;15.27;;;3.20;99.90;;;;;;5024260;28;20452;-78
2023/04/05 05:48:13;;;;;;;28.13;15.57;;;3.10;99.90;;;;;;5019063;28;20257;-78
2023/04/05 05:50:38;;;;;;;23.30;14.80;;;3.30;99.90;;;;;;5020332;28;20207;-78
2023/04/05 05:53:04;;;;;;;23.73;15.27;;;3.20;99.90;;;;;;5012084;28;20171;-78
2023/04/05 05:55:30;;;;;;;21.30;12.97;;;3.40;99.90;;;;;;5014005;28;20175;-77
2023/04/05 05:57:56;;;;;;;24.30;13.60;;;3.60;99.90;;;;;;5013735;28;20830;-78
2023/04/05 06:00:22;;;;;;;20.40;12.20;;;3.40;99.90;;;;;;5013647;28;20437;-79
2023/04/05 06:02:48;;;;;;;16.97;10.33;;;3.70;99.90;;;;;;5013588;28;20179;-78
2023/04/05 06:05:14;;;;;;;15.87;9.90;;;3.70;99.90;;;;;;5012414;28;20179;-78
2023/04/05 06:07:40;;;;;;;16.63;11.63;;;4.00;99.90;;;;;;5012293;28;20464;-78
2023/04/05 06:10:07;;;;;;;14.70;10.00;;;4.10;99.90;;;;;;5013339;28;20214;-77
2023/04/05 06:12:33;;;;;;;13.30;9.27;;;4.30;99.90;;;;;;5013990;28;20179;-77
2023/04/05 06:15:00;;;;;;;18.07;10.50;;;4.50;99.90;;;;;;5012179;28;20799;-77
2023/04/05 06:17:26;;;;;;;11.50;8.50;;;4.40;99.90;;;;;;4998345;28;20230;-77
2023/04/05 06:19:51;;;;;;;13.13;9.77;;;4.60;99.90;;;;;;5026886;28;20445;-78
2023/04/05 06:22:17;;;;;;;14.03;8.60;;;4.80;99.90;;;;;;5020980;28;20183;-77
2023/04/05 06:24:43;;;;;;;14.80;8.93;;;4.80;99.90;;;;;;5026858;28;20323;-78
2023/04/05 06:27:09;;;;;;;9.67;7.57;;;5.20;99.90;;;;;;5013062;28;20841;-79
2023/04/05 06:29:34;;;;;;;9.77;7.83;;;5.30;99.90;;;;;;5025628;28;20828;-76
2023/04/05 06:32:00;;;;;;;10.90;7.43;;;5.40;99.90;;;;;;4995007;28;20183;-78
2023/04/05 06:34:26;;;;;;;15.13;8.17;;;5.40;99.90;;;;;;5011596;28;20219;-78
2023/04/05 06:36:51;;;;;;;8.70;6.67;;;5.70;99.90;;;;;;5014451;28;20179;-78
2023/04/05 06:39:18;;;;;;;11.60;7.27;;;5.90;99.90;;;;;;5017083;28;20504;-78
2023/04/05 06:41:44;;;;;;;11.57;6.30;;;6.10;99.90;;;;;;5007060;28;20179;-77
2023/04/05 06:44:09;;;;;;;7.00;6.30;;;5.80;99.90;;;;;;5018393;28;20511;-78
2023/04/05 06:46:35;;;;;;;9.60;6.00;;;6.20;99.90;;;;;;4992334;28;20164;-78
2023/04/05 06:49:01;;;;;;;7.47;6.63;;;6.10;99.70;;;;;;4992812;28;20196;-77
2023/04/05 06:51:27;;;;;;;8.57;6.70;;;6.00;99.90;;;;;;4993682;28;20176;-78
2023/04/05 06:53:54;;;;;;;6.83;5.93;;;6.10;99.90;;;;;;5008383;28;20196;-76
2023/04/05 06:56:20;;;;;;;11.33;7.23;;;6.50;99.90;;;;;;4994038;28;20450;-78
2023/04/05 06:58:46;;;;;;;8.80;7.00;;;6.30;99.90;;;;;;5016346;28;20458;-78
2023/04/05 07:01:12;;;;;;;9.43;6.90;;;6.40;99.50;;;;;;4997952;28;20489;-78
2023/04/05 07:03:38;;;;;;;8.50;6.97;;;6.70;99.40;;;;;;4996869;28;20455;-78
2023/04/05 07:06:05;;;;;;;7.97;6.80;;;6.60;98.20;;;;;;5020089;28;20419;-77
2023/04/05 07:08:31;;;;;;;12.00;7.07;;;6.80;98.50;;;;;;4989236;28;20175;-78
2023/04/05 07:10:58;;;;;;;9.60;6.67;;;6.80;98.80;;;;;;4989220;28;20491;-77
2023/04/05 07:13:24;;;;;;;7.63;6.30;;;6.60;98.20;;;;;;4990610;28;20510;-77
2023/04/05 07:15:50;;;;;;;7.13;6.30;;;6.80;98.30;;;;;;4989664;28;20418;-78
2023/04/05 07:18:17;;;;;;;8.47;6.50;;;6.80;97.40;;;;;;5008462;28;20418;-78
2023/04/05 07:20:46;;;;;;;8.37;6.43;;;6.80;97.50;;;;;;5008963;28;20438;-78
2023/04/05 07:23:12;;;;;;;8.57;6.37;;;6.90;98.10;;;;;;5008772;28;20458;-78
2023/04/05 07:25:39;;;;;;;6.20;5.50;;;6.90;97.80;;;;;;5008998;28;20442;-78
2023/04/05 07:28:05;;;;;;;7.97;5.77;;;7.10;98.30;;;;;;5009968;28;20761;-78
2023/04/05 07:30:31;;;;;;;6.90;6.20;;;7.20;97.10;;;;;;5008621;28;20488;-78
2023/04/05 07:32:57;;;;;;;6.60;5.83;;;7.20;97.20;;;;;;5010200;28;20211;-78
2023/04/05 07:35:23;;;;;;;7.67;6.10;;;7.20;96.80;;;;;;5009893;28;20171;-78
2023/04/05 07:37:49;;;;;;;8.13;5.83;;;7.20;95.90;;;;;;5009791;28;20501;-78
2023/04/05 07:40:15;;;;;;;6.00;5.40;;;7.40;96.60;;;;;;5009628;28;20552;-77
2023/04/05 07:42:40;;;;;;;7.50;5.20;;;7.40;96.00;;;;;;5009401;28;20755;-78
2023/04/05 07:45:07;;;;;;;9.60;5.97;;;7.30;96.40;;;;;;5008436;28;20844;-77
2023/04/05 07:47:34;;;;;;;6.80;5.77;;;7.60;96.30;;;;;;5009493;28;20226;-78
2023/04/05 07:50:00;;;;;;;8.50;5.67;;;7.60;96.20;;;;;;5009380;28;20473;-78
2023/04/05 07:52:25;;;;;;;7.40;5.77;;;7.70;95.60;;;;;;5008400;28;20837;-78
2023/04/05 07:54:51;;;;;;;8.33;6.10;;;7.60;95.40;;;;;;5008938;28;20418;-77
2023/04/05 07:57:20;;;;;;;6.47;5.70;;;7.70;95.20;;;;;;5006899;28;20518;-78
2023/04/05 07:59:49;;;;;;;6.97;6.27;;;7.90;95.80;;;;;;5007571;28;20731;-78
2023/04/05 08:02:15;;;;;;;5.90;5.20;;;7.60;95.80;;;;;;5009165;28;20460;-78
2023/04/05 08:04:41;;;;;;;6.47;5.77;;;7.50;95.90;;;;;;5007188;28;20417;-77
2023/04/05 08:07:07;;;;;;;6.53;5.87;;;7.70;96.00;;;;;;5008788;28;20476;-78
2023/04/05 08:09:32;;;;;;;6.27;5.53;;;7.70;95.40;;;;;;5008876;28;20241;-78
2023/04/05 08:12:00;;;;;;;6.67;5.97;;;7.90;95.10;;;;;;5009799;28;20648;-78
2023/04/05 08:14:26;;;;;;;6.80;5.97;;;7.90;95.30;;;;;;5008167;28;20182;-78
2023/04/05 08:16:51;;;;;;;6.33;5.67;;;8.00;96.00;;;;;;5009789;28;20410;-78
2023/04/05 08:19:17;;;;;;;6.57;5.73;;;7.80;96.10;;;;;;5013545;28;20190;-77
2023/04/05 08:21:42;;;;;;;6.60;5.63;;;7.80;95.00;;;;;;5013800;28;20171;-78
2023/04/05 08:24:08;;;;;;;7.53;6.40;;;8.00;95.00;;;;;;5013309;28;20183;-78
2023/04/05 08:26:34;;;;;;;10.10;6.27;;;8.00;95.30;;;;;;5013727;28;20203;-78
2023/04/05 08:29:00;;;;;;;6.60;5.60;;;8.00;95.50;;;;;;5012105;28;20285;-78
2023/04/05 08:31:25;;;;;;;8.67;6.20;;;8.10;95.80;;;;;;5013283;28;20244;-78
2023/04/05 08:33:51;;;;;;;6.70;5.70;;;8.00;95.30;;;;;;5012111;28;20183;-78
2023/04/05 08:36:16;;;;;;;8.60;5.67;;;8.10;95.50;;;;;;5013489;28;20667;-78
2023/04/05 08:38:42;;;;;;;6.20;5.60;;;8.10;95.50;;;;;;5013068;28;20567;-78
2023/04/05 08:41:18;;;;;;;6.23;5.47;;;8.20;96.00;;;;;;5013358;28;20738;-78
2023/04/05 08:43:43;;;;;;;8.63;5.30;;;8.10;95.40;;;;;;5013648;28;20179;-78
2023/04/05 08:46:15;;;;;;;7.50;6.43;;;8.10;95.20;;;;;;5013603;28;20413;-77
2023/04/05 08:48:41;;;;;;;7.23;5.43;;;8.10;94.60;;;;;;5013463;28;20654;-78
2023/04/05 08:51:08;;;;;;;6.40;5.80;;;8.10;94.10;;;;;;5013694;28;20552;-78
2023/04/05 08:53:33;;;;;;;7.30;5.83;;;8.10;95.10;;;;;;5013456;28;20414;-78
2023/04/05 08:56:01;;;;;;;7.73;5.80;;;8.20;95.10;;;;;;5013654;28;20824;-78
2023/04/05 08:58:27;;;;;;;6.67;5.63;;;8.40;95.40;;;;;;5012979;28;20230;-78
2023/04/05 09:00:56;;;;;;;5.67;5.13;;;8.40;95.70;;;;;;5011714;28;20453;-78
2023/04/05 09:03:24;;;;;;;8.10;5.90;;;8.50;95.50;;;;;;5010244;28;20432;-78
2023/04/05 09:05:51;;;;;;;6.03;5.47;;;8.60;94.50;;;;;;5013355;28;20863;-78
2023/04/05 09:08:17;;;;;;;6.63;5.63;;;8.50;94.00;;;;;;5012927;28;20414;-78
2023/04/05 09:10:43;;;;;;;8.67;5.97;;;8.50;92.50;;;;;;5012882;28;20520;-78
2023/04/05 09:13:09;;;;;;;7.40;5.67;;;8.50;92.70;;;;;;5013296;28;20422;-78
2023/04/05 09:15:40;;;;;;;5.90;5.30;;;8.60;92.50;;;;;;5012349;28;20414;-78
2023/04/05 09:18:05;;;;;;;5.53;5.03;;;8.50;93.50;;;;;;5012008;28;20415;-78
2023/04/05 09:20:31;;;;;;;9.30;6.30;;;8.60;93.40;;;;;;5013128;28;20829;-78
2023/04/05 09:22:57;;;;;;;7.40;5.67;;;8.80;93.00;;;;;;5012516;28;20179;-78
2023/04/05 09:25:35;;;;;;;9.40;6.30;;;8.80;92.90;;;;;;5013490;28;20183;-78
2023/04/05 09:28:02;;;;;;;6.27;4.90;;;9.00;93.30;;;;;;5013097;28;20233;-78
2023/04/05 09:30:30;;;;;;;7.33;5.57;;;9.10;92.80;;;;;;5011043;28;20588;-78
2023/04/05 09:32:56;;;;;;;6.67;5.97;;;9.00;92.40;;;;;;5013092;28;20453;-78
2023/04/05 09:35:24;;;;;;;9.40;6.50;;;9.20;92.40;;;;;;5027669;28;20446;-78
2023/04/05 09:37:53;;;;;;;6.70;5.07;;;9.30;93.40;;;;;;5013132;28;20194;-78
2023/04/05 09:40:20;;;;;;;7.20;6.00;;;9.50;93.70;;;;;;5011209;28;20511;-78
2023/04/05 09:42:46;;;;;;;8.63;6.07;;;9.60;93.30;;;;;;5012609;28;20429;-78
2023/04/05 09:45:13;;;;;;;6.20;5.40;;;9.80;91.40;;;;;;4998250;28;20458;-78
2023/04/05 09:47:40;;;;;;;6.73;5.80;;;9.90;90.30;;;;;;5007767;28;20499;-78
2023/04/05 09:50:15;;;;;;;6.90;5.83;;;10.00;88.80;;;;;;4992747;28;20474;-78
2023/04/05 09:52:41;;;;;;;6.73;5.80;;;10.10;88.30;;;;;;4993029;28;20406;-78
2023/04/05 09:55:08;;;;;;;7.10;6.40;;;10.20;88.30;;;;;;4992645;28;20407;-79
2023/04/05 09:57:38;;;;;;;10.13;7.67;;;10.30;88.30;;;;;;4992974;28;20798;-79
2023/04/05 10:00:08;;;;;;;8.77;5.90;;;10.40;90.20;;;;;;4992503;28;20442;-79
2023/04/05 10:02:39;;;;;;;9.23;6.70;;;10.50;90.40;;;;;;4992917;28;20419;-78
2023/04/05 10:05:15;;;;;;;6.63;5.10;;;10.50;87.30;;;;;;5007636;28;20431;-78
2023/04/05 10:07:44;;;;;;;6.30;5.60;;;10.70;88.40;;;;;;4992077;28;20430;-78
2023/04/05 10:10:11;;;;;;;8.63;6.20;;;10.70;87.50;;;;;;5007303;28;20462;-79
2023/04/05 10:12:40;;;;;;;8.07;5.53;;;10.80;88.90;;;;;;5007320;28;20410;-78
2023/04/05 10:15:07;;;;;;;6.50;5.90;;;10.90;88.10;;;;;;4992769;28;20754;-78
2023/04/05 10:17:48;;;;;;;9.10;7.90;;;11.10;88.00;;;;;;5008055;28;20414;-78
2023/04/05 10:20:19;;;;;;;7.40;5.87;;;11.20;86.00;;;;;;5008667;28;20846;-78
2023/04/05 10:22:50;;;;;;;7.93;6.50;;;11.30;82.30;;;;;;4991233;28;20427;-78
2023/04/05 10:25:25;;;;;;;6.10;5.50;;;11.30;79.90;;;;;;5008035;28;20469;-78
2023/04/05 10:28:02;;;;;;;8.23;6.33;;;11.30;84.10;;;;;;4975090;28;20464;-78
2023/04/05 10:30:35;;;;;;;9.40;5.80;;;11.40;84.50;;;;;;4992704;28;20466;-78
2023/04/05 10:33:26;;;;;;;8.43;6.47;;;11.40;81.50;;;;;;4993682;28;20927;-77
2023/04/05 10:36:15;;;;;;;6.47;5.87;;;11.50;79.30;;;;;;4993082;28;20479;-78
2023/04/05 10:39:18;;;;;;;7.20;6.27;;;11.50;79.90;;;;;;5008930;28;21029;-79
2023/04/05 10:41:48;;;;;;;7.10;6.00;;;11.60;81.10;;;;;;4985758;28;20458;-78
2023/04/05 10:44:14;;;;;;;7.17;5.90;;;11.60;77.50;;;;;;4999041;28;20800;-78
2023/04/05 10:46:43;;;;;;;8.33;6.67;;;11.60;78.10;;;;;;5012629;28;20418;-78
2023/04/05 10:49:26;;;;;;;9.10;6.33;;;11.60;77.20;;;;;;5013138;28;20484;-78
2023/04/05 10:51:53;;;;;;;9.03;6.00;;;11.70;76.40;;;;;;5012699;28;20426;-78
2023/04/05 10:54:20;;;;;;;8.73;6.20;;;11.60;71.30;;;;;;5029018;28;20426;-78
2023/04/05 10:56:46;;;;;;;6.93;6.23;;;11.60;72.10;;;;;;5011663;28;20417;-78
2023/04/05 10:59:12;;;;;;;6.83;6.00;;;11.50;70.30;;;;;;5011695;28;20461;-78
2023/04/05 11:01:39;;;;;;;8.57;6.53;;;11.60;73.60;;;;;;5013047;28;20406;-78
2023/04/05 11:04:15;;;;;;;6.87;5.77;;;11.70;74.60;;;;;;5010801;28;20923;-78
2023/04/05 11:06:41;;;;;;;7.37;6.33;;;11.70;77.10;;;;;;5012199;28;20438;-79
2023/04/05 11:09:14;;;;;;;12.23;6.73;;;11.80;74.50;;;;;;5013273;28;20847;-78
2023/04/05 11:11:44;;;;;;;9.07;6.37;;;11.90;70.30;;;;;;5013125;28;20414;-78
2023/04/05 11:14:16;;;;;;;9.80;7.60;;;11.90;73.30;;;;;;5013425;28;20464;-78
2023/04/05 11:16:53;;;;;;;7.23;6.53;;;12.00;71.20;;;;;;5013572;28;20409;-78
2023/04/05 11:19:19;;;;;;;8.93;6.80;;;12.00;68.10;;;;;;5013255;28;20433;-78
2023/04/05 11:21:45;;;;;;;7.23;6.57;;;12.00;70.10;;;;;;5011848;28;20407;-78
2023/04/05 11:24:14;;;;;;;11.80;7.30;;;12.10;69.10;;;;;;5013232;28;20825;-78
2023/04/05 11:26:43;;;;;;;9.27;6.93;;;12.10;70.70;;;;;;5013561;28;20402;-78
2023/04/05 11:29:10;;;;;;;8.20;6.90;;;12.20;73.00;;;;;;5028526;28;20426;-78
2023/04/05 11:31:55;;;;;;;9.30;7.00;;;12.10;72.90;;;;;;5011601;28;21040;-78
2023/04/05 11:34:23;;;;;;;10.07;7.83;;;12.10;72.30;;;;;;4995233;28;20414;-78
2023/04/05 11:36:49;;;;;;;8.00;7.03;;;12.10;74.00;;;;;;5013168;28;20467;-78
2023/04/05 11:39:18;;;;;;;8.07;6.90;;;12.00;70.90;;;;;;5011381;28;20458;-78
2023/04/05 11:41:45;;;;;;;9.97;7.10;;;12.00;72.60;;;;;;5012584;28;20190;-78
2023/04/05 11:44:15;;;;;;;8.30;7.20;;;12.10;73.60;;;;;;5005832;28;20885;-78
2023/04/05 11:46:47;;;;;;;7.13;6.47;;;12.10;72.60;;;;;;5008170;28;20414;-78
2023/04/05 11:49:13;;;;;;;8.40;6.70;;;12.20;73.10;;;;;;5007984;28;20431;-78
2023/04/05 11:51:42;;;;;;;8.13;6.90;;;12.30;72.70;;;;;;5007979;28;20936;-78
2023/04/05 11:54:11;;;;;;;8.10;6.63;;;12.30;67.60;;;;;;4993489;28;20422;-78
2023/04/05 11:56:37;;;;;;;9.43;6.63;;;12.30;67.30;;;;;;4993590;28;20911;-78
2023/04/05 11:59:03;;;;;;;8.87;6.90;;;12.30;67.50;;;;;;4992862;28;20427;-78
2023/04/05 12:01:28;;;;;;;9.43;6.87;;;12.30;67.60;;;;;;4992204;28;20207;-78
2023/04/05 12:03:55;;;;;;;7.63;6.80;;;12.30;67.00;;;;;;5006320;28;20421;-77
2023/04/05 12:06:22;;;;;;;7.50;6.60;;;12.30;66.40;;;;;;4992885;28;20402;-78
2023/04/05 12:08:49;;;;;;;7.13;6.43;;;12.30;68.10;;;;;;4992230;28;20414;-78
2023/04/05 12:11:16;;;;;;;8.90;6.50;;;12.20;70.00;;;;;;5007589;28;20494;-79
2023/04/05 12:13:44;;;;;;;8.13;7.13;;;12.10;71.60;;;;;;4992711;28;20411;-78
2023/04/05 12:16:09;;;;;;;8.43;7.20;;;12.30;68.20;;;;;;4992923;28;20415;-78
2023/04/05 12:18:36;;;;;;;9.40;7.07;;;12.30;64.80;;;;;;5015759;28;20497;-78
2023/04/05 12:21:08;;;;;;;9.87;7.40;;;12.30;63.50;;;;;;5011147;28;20183;-78
2023/04/05 12:23:36;;;;;;;7.40;6.60;;;12.30;69.00;;;;;;5011130;28;20433;-78
2023/04/05 12:26:03;;;;;;;8.00;7.20;;;12.40;66.10;;;;;;5012726;28;20512;-78
2023/04/05 12:28:54;;;;;;;7.77;6.97;;;12.50;68.30;;;;;;5010655;28;20417;-78
2023/04/05 12:31:40;;;;;;;7.63;6.13;;;12.50;68.00;;;;;;5027185;28;20482;-78
2023/04/05 12:34:07;;;;;;;8.27;6.87;;;12.60;67.50;;;;;;4994786;28;20452;-78
2023/04/05 12:36:32;;;;;;;7.67;6.87;;;12.70;69.90;;;;;;5010917;28;20417;-78
2023/04/05 12:38:59;;;;;;;8.90;6.53;;;12.80;68.80;;;;;;5011893;28;20441;-78
2023/04/05 12:41:31;;;;;;;8.07;7.27;;;12.80;68.20;;;;;;5027823;28;20289;-78
2023/04/05 12:44:00;;;;;;;7.60;6.23;;;12.80;67.30;;;;;;5007337;28;20419;-78
2023/04/05 12:46:41;;;;;;;8.40;6.97;;;12.90;61.00;;;;;;4992897;28;20414;-78
2023/04/05 12:49:11;;;;;;;7.63;6.47;;;12.80;60.30;;;;;;5007231;28;20430;-78
2023/04/05 12:51:42;;;;;;;8.23;6.47;;;12.80;64.80;;;;;;4991012;28;20455;-78